LSME - Emmen, Switzerland
Distance from HB9FEE: SW 14km
Updated: Sun, 22-Apr-2018 9:50pm CEST
Few Clouds
Few Clouds
 Wind from SE
Wind: SE 7 km/h
Temperature: 18°C
Dew Point: 10°C
Humidity: 60%
Barometer: 1016 hPa
Clouds: Few Clouds
Visibility: 16 miles
Cloud details: Few Clouds 3048 m
2018/04/22 19:50 LSME 221950Z AUTO 13004KT 9999NDV FEW100 18/10 Q1016 RMK
LSZC - Buochs, Switzerland
Distance from HB9FEE: S 25km
Updated: Sun, 22-Apr-2018 9:50pm CEST
Clear
Clear
 Wind from W
Wind: W 7 km/h
Temperature: 19°C
Dew Point: 6°C
Humidity: 43%
Barometer: 1017 hPa
Clouds: Clear
Visibility: 10 km
2018/04/22 19:50 LSZC 221950Z AUTO 26004KT 190V310 9999 NCD 19/06 Q1017
 
LSMA - Alpnach, Switzerland
Distance from HB9FEE: SSW 29km
Updated: Sun, 22-Apr-2018 9:50pm CEST
Clear
Clear
 Wind from SSW
Wind: SSW 7 km/h
Temperature: 15°C
Dew Point: 11°C
Humidity: 77%
Barometer: 1017 hPa
Clouds: Clear
Visibility: 16 miles
2018/04/22 19:50 LSMA 221950Z AUTO 21004KT 170V250 9999NDV NCD 15/11 Q1017 RMK
LSMD - Dubendorf, Switzerland
Distance from HB9FEE: NE 29km
Updated: Sun, 22-Apr-2018 9:50pm CEST
Clear
Clear
 Wind from SE
Wind: SE 6 km/h
Temperature: 18°C
Dew Point: 9°C
Humidity: 56%
Barometer: 1016 hPa
Clouds: Clear
Visibility: 16 miles
2018/04/22 19:50 LSMD 221950Z AUTO 14003KT 9999NDV NCD 18/09 Q1016 RMK
 
LSZH - Zurich-Kloten (a, Switzerland
Distance from HB9FEE: NNE 33km
Updated: Sun, 22-Apr-2018 9:50pm CEST
Clear
Clear
 Wind from varies
Wind: varies 4 km/h
Temperature: 17°C
Dew Point: 8°C
Humidity: 56%
Barometer: 1016 hPa
Summary: Clear
Visibility: greater than 10 km
2018/04/22 19:50 LSZH 221950Z VRB02KT CAVOK 17/08 Q1016 NOSIG
LSMM - Meiringen, Switzerland
Distance from HB9FEE: SSW 54km
Updated: Sun, 22-Apr-2018 9:50pm CEST
Clear
Clear
 Wind from ESE
Wind: ESE 11 km/h
Temperature: 15°C
Dew Point: 5°C
Humidity: 51%
Barometer: 1018 hPa
Clouds: Clear
Visibility: 16 miles
2018/04/22 19:50 LSMM 221950Z AUTO 11006KT 9999NDV NCD 15/05 Q1018 RMK
 
LSZB - Bern/Belp, Switzerland
Distance from HB9FEE: WSW 76km
Updated: Sun, 22-Apr-2018 9:50pm CEST
Few Clouds
Few Clouds
 Wind from varies
Wind: varies 2 km/h
Temperature: 15°C
Dew Point: 11°C
Humidity: 77%
Barometer: 1016 hPa
Clouds: Few Clouds
Visibility: 10 km
Cloud details: Few Clouds 3353 m
2018/04/22 19:50 LSZB 221950Z VRB01KT 9999 FEW110 15/11 Q1016 NOSIG
LSZG - Grenchen, Switzerland
Distance from HB9FEE: W 76km
Updated: Sun, 22-Apr-2018 9:50pm CEST
Clear
Clear
 Wind from S
Wind: S 4 km/h
Temperature: 18°C
Dew Point: 8°C
Humidity: 52%
Barometer: 1016 hPa
Summary: Clear
Visibility: greater than 10 km
2018/04/22 19:50 LSZG 221950Z AUTO 17002KT CAVOK 18/08 Q1016
 
LFSB - Bale/Mulhouse, France
Distance from HB9FEE: NW 82km
Updated: Sun, 22-Apr-2018 10:00pm CEST
Clear
Clear
 Wind from SW
Wind: SW 9 km/h
Temperature: 20°C
Dew Point: 7°C
Humidity: 43%
Barometer: 1015 hPa
Summary: Clear
Visibility: greater than 10 km
2018/04/22 20:00 LFSB 222000Z 22005KT CAVOK 20/07 Q1015 NOSIG
LSZR - Rheineck/Altenrh, Switzerland
Distance from HB9FEE: ENE 92km
Updated: Sun, 22-Apr-2018 9:50pm CEST
Clear
Clear
 Wind from varies
Wind: varies 6 km/h
Temperature: 21°C
Dew Point: 8°C
Humidity: 43%
Barometer: 1015 hPa
Summary: Clear
Visibility: greater than 10 km
2018/04/22 19:50 LSZR 221950Z AUTO VRB03KT CAVOK 21/08 Q1015
 
LSZL - Locarno, Switzerland
Distance from HB9FEE: SSE 119km
Updated: Sun, 22-Apr-2018 9:50pm CEST
Clear
Clear
 Wind from calm
Wind: Calm
Temperature: 18°C
Dew Point: 12°C
Humidity: 68%
Barometer: 1016 hPa
Clouds: Clear
Visibility: 16 miles
2018/04/22 19:50 LSZL 221950Z AUTO 00000KT 9999NDV NCD 18/12 Q1016 RMK
LSMP - Payerne (mil/Aut, Switzerland
Distance from HB9FEE: WSW 121km
Updated: Sun, 22-Apr-2018 9:50pm CEST
Clear
Clear
 Wind from SW
Wind: SW 9 km/h
Temperature: 16°C
Dew Point: 9°C
Humidity: 63%
Barometer: 1016 hPa
Clouds: Clear
Visibility: 16 miles
2018/04/22 19:50 LSMP 221950Z AUTO 22005KT 9999NDV NCD 16/09 Q1016 RMK
 
LSGC - Les Eplatures, Switzerland
Distance from HB9FEE: W 123km
Updated: Sun, 22-Apr-2018 9:50pm CEST
Clear
Clear
 Wind from calm
Wind: Calm
Temperature: 12°C
Dew Point: 7°C
Humidity: 72%
Barometer: 1019 hPa
Summary: Clear
Visibility: greater than 10 km
2018/04/22 19:50 LSGC 221950Z AUTO 00000KT CAVOK 12/07 Q1019
LSZS - Samedan, Switzerland
Distance from HB9FEE: ESE 133km
Updated: Sun, 22-Apr-2018 9:50pm CEST
Clear
Clear
 Wind from S
Wind: S 9 km/h
Temperature: 5°C
Wind Chill: 3°C
Dew Point: 1°C
Humidity: 76%
Barometer: 1023 hPa
Summary: Clear
Visibility: greater than 10 km
2018/04/22 19:50 LSZS 221950Z AUTO 19005KT CAVOK 05/01 Q1023
 
LSGS - Sion (mil/Civ/Au, Switzerland
Distance from HB9FEE: SW 137km
Updated: Sun, 22-Apr-2018 9:50pm CEST
Clear
Clear
 Wind from E
Wind: E 9 km/h
Temperature: 21°C
Dew Point: 4°C
Humidity: 33%
Barometer: 1017 hPa
Summary: Clear
Visibility: greater than 10 km
2018/04/22 19:50 LSGS 221950Z AUTO 10005KT CAVOK 21/04 Q1017
LSZA - Lugano (pvt/Aut), Switzerland
Distance from HB9FEE: SSE 138km
Updated: Sun, 22-Apr-2018 9:50pm CEST
Clear
Clear
 Wind from varies
Wind: varies 2 km/h
Temperature: 18°C
Dew Point: 10°C
Humidity: 60%
Barometer: 1017 hPa
Summary: Clear
Visibility: greater than 10 km
2018/04/22 19:50 LSZA 221950Z VRB01KT CAVOK 18/10 Q1017 NOSIG